Terminal Aerodrome Forecast
Issued by NWS

Home | Current Version | Previous Version | Text Only | Print | Product List | Glossary On
Versions: 1 2 3 4 5 6 7 8 9 10 11 12
000
FTUS46 KPDT 161100
TAFYKM
TAF
KYKM 161136Z 1612/1712 26006KT P6SM BKN200
     FM161600 VRB05KT P6SM BKN250
     FM162100 12004KT P6SM FEW250
     FM170300 27006KT P6SM SCT150 BKN200=

USA.gov is the U.S. government's official web portal to all federal, state and local government web resources and services.